sensor_id;sensor_type;location;lat;lon;timestamp;pressure;altitude;pressure_sealevel;temperature;humidity
55032;BME280;40928;51.076;7.950;2023-05-19T00:01:56;97927.06;;;5.08;97.93
55032;BME280;40928;51.076;7.950;2023-05-19T00:04:25;97928.63;;;5.02;98.62
55032;BME280;40928;51.076;7.950;2023-05-19T00:06:52;97933.28;;;5.00;98.50
55032;BME280;40928;51.076;7.950;2023-05-19T00:09:18;97919.78;;;4.95;98.22
55032;BME280;40928;51.076;7.950;2023-05-19T00:11:44;97922.78;;;4.92;98.57
55032;BME280;40928;51.076;7.950;2023-05-19T00:14:10;97917.19;;;4.87;99.03
55032;BME280;40928;51.076;7.950;2023-05-19T00:16:36;97924.50;;;4.85;99.26
55032;BME280;40928;51.076;7.950;2023-05-19T00:19:03;97920.38;;;4.82;99.05
55032;BME280;40928;51.076;7.950;2023-05-19T00:21:30;97917.81;;;4.74;99.61
55032;BME280;40928;51.076;7.950;2023-05-19T00:23:55;97916.34;;;4.71;99.55
55032;BME280;40928;51.076;7.950;2023-05-19T00:26:21;97920.34;;;4.67;100.00
55032;BME280;40928;51.076;7.950;2023-05-19T00:28:57;97917.06;;;4.65;100.00
55032;BME280;40928;51.076;7.950;2023-05-19T00:31:23;97916.78;;;4.60;100.00
55032;BME280;40928;51.076;7.950;2023-05-19T00:33:48;97908.66;;;4.62;100.00
55032;BME280;40928;51.076;7.950;2023-05-19T00:36:14;97909.03;;;4.59;100.00
55032;BME280;40928;51.076;7.950;2023-05-19T00:38:39;97909.38;;;4.55;100.00
55032;BME280;40928;51.076;7.950;2023-05-19T00:41:05;97910.19;;;4.56;100.00
55032;BME280;40928;51.076;7.950;2023-05-19T00:43:31;97910.09;;;4.49;100.00
55032;BME280;40928;51.076;7.950;2023-05-19T00:46:00;97907.97;;;4.45;100.00
55032;BME280;40928;51.076;7.950;2023-05-19T00:48:25;97911.16;;;4.40;100.00
55032;BME280;40928;51.076;7.950;2023-05-19T00:50:59;97908.75;;;4.30;100.00
55032;BME280;40928;51.076;7.950;2023-05-19T00:53:29;97908.28;;;4.26;100.00
55032;BME280;40928;51.076;7.950;2023-05-19T00:55:56;97903.81;;;4.27;100.00
55032;BME280;40928;51.076;7.950;2023-05-19T00:58:23;97895.88;;;4.27;100.00
55032;BME280;40928;51.076;7.950;2023-05-19T01:00:53;97902.50;;;4.23;100.00
55032;BME280;40928;51.076;7.950;2023-05-19T01:03:20;97901.03;;;4.20;100.00
55032;BME280;40928;51.076;7.950;2023-05-19T01:05:47;97905.22;;;4.15;100.00
55032;BME280;40928;51.076;7.950;2023-05-19T01:08:14;97899.28;;;4.13;100.00
55032;BME280;40928;51.076;7.950;2023-05-19T01:10:40;97897.31;;;4.06;100.00
55032;BME280;40928;51.076;7.950;2023-05-19T01:13:06;97903.78;;;4.04;100.00
55032;BME280;40928;51.076;7.950;2023-05-19T01:15:39;97904.97;;;4.01;100.00
55032;BME280;40928;51.076;7.950;2023-05-19T01:18:14;97899.38;;;3.96;100.00
55032;BME280;40928;51.076;7.950;2023-05-19T01:20:49;97908.66;;;3.92;100.00
55032;BME280;40928;51.076;7.950;2023-05-19T01:23:27;97897.44;;;3.90;100.00
55032;BME280;40928;51.076;7.950;2023-05-19T01:31:18;97887.44;;;3.77;100.00
55032;BME280;40928;51.076;7.950;2023-05-19T01:33:46;97895.38;;;3.77;100.00
55032;BME280;40928;51.076;7.950;2023-05-19T01:36:14;97893.06;;;3.74;100.00
55032;BME280;40928;51.076;7.950;2023-05-19T01:38:42;97891.63;;;3.71;100.00
55032;BME280;40928;51.076;7.950;2023-05-19T01:41:08;97905.47;;;3.73;100.00
55032;BME280;40928;51.076;7.950;2023-05-19T01:43:34;97902.19;;;3.71;100.00
55032;BME280;40928;51.076;7.950;2023-05-19T01:46:01;97905.81;;;3.70;100.00
55032;BME280;40928;51.076;7.950;2023-05-19T01:48:27;97904.16;;;3.69;100.00
55032;BME280;40928;51.076;7.950;2023-05-19T01:50:56;97898.56;;;3.64;100.00
55032;BME280;40928;51.076;7.950;2023-05-19T01:53:22;97897.56;;;3.65;100.00
55032;BME280;40928;51.076;7.950;2023-05-19T01:55:52;97900.22;;;3.65;100.00
55032;BME280;40928;51.076;7.950;2023-05-19T02:01:02;97898.25;;;3.59;100.00
55032;BME280;40928;51.076;7.950;2023-05-19T02:09:23;97906.22;;;3.50;100.00
55032;BME280;40928;51.076;7.950;2023-05-19T02:11:53;97902.59;;;3.52;100.00
55032;BME280;40928;51.076;7.950;2023-05-19T02:21:25;97894.06;;;3.33;100.00
55032;BME280;40928;51.076;7.950;2023-05-19T02:23:50;97885.38;;;3.24;100.00
55032;BME280;40928;51.076;7.950;2023-05-19T02:26:18;97891.47;;;3.25;100.00
55032;BME280;40928;51.076;7.950;2023-05-19T02:28:44;97884.88;;;3.20;100.00
55032;BME280;40928;51.076;7.950;2023-05-19T02:31:09;97892.63;;;3.22;100.00
55032;BME280;40928;51.076;7.950;2023-05-19T02:33:35;97890.16;;;3.20;100.00
55032;BME280;40928;51.076;7.950;2023-05-19T02:36:01;97889.03;;;3.15;100.00
55032;BME280;40928;51.076;7.950;2023-05-19T02:38:27;97891.81;;;3.13;100.00
55032;BME280;40928;51.076;7.950;2023-05-19T02:40:52;97890.84;;;3.14;100.00
55032;BME280;40928;51.076;7.950;2023-05-19T02:43:18;97890.19;;;3.12;100.00
55032;BME280;40928;51.076;7.950;2023-05-19T02:45:44;97892.19;;;3.10;100.00
55032;BME280;40928;51.076;7.950;2023-05-19T02:48:10;97887.38;;;3.05;100.00
55032;BME280;40928;51.076;7.950;2023-05-19T02:50:35;97880.31;;;3.06;100.00
55032;BME280;40928;51.076;7.950;2023-05-19T02:53:01;97884.94;;;3.04;100.00
55032;BME280;40928;51.076;7.950;2023-05-19T02:55:27;97886.91;;;3.02;100.00
55032;BME280;40928;51.076;7.950;2023-05-19T02:57:52;97880.97;;;3.00;100.00
55032;BME280;40928;51.076;7.950;2023-05-19T03:00:18;97874.25;;;2.97;100.00
55032;BME280;40928;51.076;7.950;2023-05-19T03:02:44;97880.97;;;3.00;100.00
55032;BME280;40928;51.076;7.950;2023-05-19T03:05:10;97880.81;;;3.01;100.00
55032;BME280;40928;51.076;7.950;2023-05-19T03:07:36;97876.22;;;3.03;100.00
55032;BME280;40928;51.076;7.950;2023-05-19T03:10:01;97880.00;;;3.01;100.00
55032;BME280;40928;51.076;7.950;2023-05-19T03:12:31;97875.03;;;2.98;100.00
55032;BME280;40928;51.076;7.950;2023-05-19T03:14:58;97879.69;;;2.96;100.00
55032;BME280;40928;51.076;7.950;2023-05-19T03:17:24;97872.91;;;2.93;100.00
55032;BME280;40928;51.076;7.950;2023-05-19T03:19:49;97875.56;;;2.93;100.00
55032;BME280;40928;51.076;7.950;2023-05-19T03:22:15;97878.53;;;2.90;100.00
55032;BME280;40928;51.076;7.950;2023-05-19T03:24:43;97874.25;;;2.89;100.00
55032;BME280;40928;51.076;7.950;2023-05-19T03:27:11;97869.97;;;2.88;100.00
55032;BME280;40928;51.076;7.950;2023-05-19T03:29:37;97869.16;;;2.87;100.00
55032;BME280;40928;51.076;7.950;2023-05-19T03:32:02;97871.13;;;2.85;100.00
55032;BME280;40928;51.076;7.950;2023-05-19T03:34:28;97871.78;;;2.87;100.00
55032;BME280;40928;51.076;7.950;2023-05-19T03:36:55;97867.50;;;2.86;100.00
55032;BME280;40928;51.076;7.950;2023-05-19T03:39:21;97864.19;;;2.84;100.00
55032;BME280;40928;51.076;7.950;2023-05-19T03:41:47;97864.53;;;2.81;100.00
55032;BME280;40928;51.076;7.950;2023-05-19T03:44:13;97867.81;;;2.83;100.00
55032;BME280;40928;51.076;7.950;2023-05-19T03:46:38;97867.81;;;2.83;100.00
55032;BME280;40928;51.076;7.950;2023-05-19T03:49:22;97868.81;;;2.82;100.00
55032;BME280;40928;51.076;7.950;2023-05-19T03:52:11;97870.16;;;2.78;100.00
55032;BME280;40928;51.076;7.950;2023-05-19T03:55:04;97871.31;;;2.76;100.00
55032;BME280;40928;51.076;7.950;2023-05-19T03:57:29;97869.84;;;2.73;100.00
55032;BME280;40928;51.076;7.950;2023-05-19T03:59:55;97874.78;;;2.76;100.00
55032;BME280;40928;51.076;7.950;2023-05-19T04:02:20;97877.75;;;2.73;100.00
55032;BME280;40928;51.076;7.950;2023-05-19T04:04:46;97879.56;;;2.72;100.00
55032;BME280;40928;51.076;7.950;2023-05-19T04:07:12;97885.84;;;2.71;100.00
55032;BME280;40928;51.076;7.950;2023-05-19T04:09:37;97877.75;;;2.73;100.00
55032;BME280;40928;51.076;7.950;2023-05-19T04:12:03;97881.69;;;2.77;100.00
55032;BME280;40928;51.076;7.950;2023-05-19T04:14:29;97885.81;;;2.80;100.00
55032;BME280;40928;51.076;7.950;2023-05-19T04:16:54;97882.19;;;2.81;100.00
55032;BME280;40928;51.076;7.950;2023-05-19T04:19:20;97886.94;;;2.85;100.00
55032;BME280;40928;51.076;7.950;2023-05-19T04:21:45;97873.75;;;2.85;100.00
55032;BME280;40928;51.076;7.950;2023-05-19T04:24:11;97879.03;;;2.85;100.00
55032;BME280;40928;51.076;7.950;2023-05-19T04:26:36;97870.47;;;2.83;100.00
55032;BME280;40928;51.076;7.950;2023-05-19T04:29:03;97869.97;;;2.88;100.00
55032;BME280;40928;51.076;7.950;2023-05-19T04:31:29;97875.25;;;2.88;100.00
55032;BME280;40928;51.076;7.950;2023-05-19T04:33:55;97873.91;;;2.92;100.00
55032;BME280;40928;51.076;7.950;2023-05-19T04:36:21;97873.41;;;2.97;100.00
55032;BME280;40928;51.076;7.950;2023-05-19T04:38:48;97875.69;;;3.00;100.00
55032;BME280;40928;51.076;7.950;2023-05-19T04:41:19;97870.75;;;3.05;100.00
55032;BME280;40928;51.076;7.950;2023-05-19T04:43:46;97871.22;;;3.09;100.00
55032;BME280;40928;51.076;7.950;2023-05-19T04:46:13;97878.47;;;3.15;100.00
55032;BME280;40928;51.076;7.950;2023-05-19T04:48:39;97869.84;;;3.21;100.00
55032;BME280;40928;51.076;7.950;2023-05-19T04:51:05;97875.28;;;3.28;100.00
55032;BME280;40928;51.076;7.950;2023-05-19T04:53:31;97876.59;;;3.32;100.00
55032;BME280;40928;51.076;7.950;2023-05-19T04:55:58;97878.56;;;3.38;100.00
55032;BME280;40928;51.076;7.950;2023-05-19T04:58:26;97877.03;;;3.44;100.00
55032;BME280;40928;51.076;7.950;2023-05-19T05:00:53;97877.97;;;3.51;100.00
55032;BME280;40928;51.076;7.950;2023-05-19T05:03:23;97873.84;;;3.57;100.00
55032;BME280;40928;51.076;7.950;2023-05-19T05:05:49;97880.91;;;3.64;100.00
55032;BME280;40928;51.076;7.950;2023-05-19T05:08:16;97873.13;;;3.71;100.00
55032;BME280;40928;51.076;7.950;2023-05-19T05:10:51;97873.72;;;3.81;100.00
55032;BME280;40928;51.076;7.950;2023-05-19T05:13:20;97875.28;;;3.91;100.00
55032;BME280;40928;51.076;7.950;2023-05-19T05:15:47;97873.06;;;4.03;100.00
55032;BME280;40928;51.076;7.950;2023-05-19T05:18:14;97878.13;;;4.13;100.00
55032;BME280;40928;51.076;7.950;2023-05-19T05:20:41;97868.50;;;4.20;100.00
55032;BME280;40928;51.076;7.950;2023-05-19T05:23:09;97874.38;;;4.30;100.00
55032;BME280;40928;51.076;7.950;2023-05-19T05:25:37;97876.13;;;4.38;100.00
55032;BME280;40928;51.076;7.950;2023-05-19T05:28:02;97876.25;;;4.45;100.00
55032;BME280;40928;51.076;7.950;2023-05-19T05:30:31;97876.16;;;4.53;100.00
55032;BME280;40928;51.076;7.950;2023-05-19T05:32:58;97874.09;;;4.63;100.00
55032;BME280;40928;51.076;7.950;2023-05-19T05:35:31;97863.25;;;4.73;100.00
55032;BME280;40928;51.076;7.950;2023-05-19T05:37:57;97867.47;;;4.82;100.00
55032;BME280;40928;51.076;7.950;2023-05-19T05:40:23;97872.50;;;4.92;100.00
55032;BME280;40928;51.076;7.950;2023-05-19T05:42:48;97879.16;;;5.03;100.00
55032;BME280;40928;51.076;7.950;2023-05-19T05:45:20;97867.91;;;5.16;100.00
55032;BME280;40928;51.076;7.950;2023-05-19T05:47:45;97866.47;;;5.28;100.00
55032;BME280;40928;51.076;7.950;2023-05-19T05:50:12;97870.28;;;5.41;100.00
55032;BME280;40928;51.076;7.950;2023-05-19T05:52:39;97865.16;;;5.54;100.00
55032;BME280;40928;51.076;7.950;2023-05-19T05:55:05;97863.28;;;5.70;100.00
55032;BME280;40928;51.076;7.950;2023-05-19T05:57:33;97863.72;;;5.88;100.00
55032;BME280;40928;51.076;7.950;2023-05-19T06:00:03;97862.28;;;6.07;100.00
55032;BME280;40928;51.076;7.950;2023-05-19T06:02:44;97860.66;;;6.28;100.00
55032;BME280;40928;51.076;7.950;2023-05-19T06:05:13;97860.19;;;6.46;100.00
55032;BME280;40928;51.076;7.950;2023-05-19T06:07:40;97866.88;;;6.64;100.00
55032;BME280;40928;51.076;7.950;2023-05-19T06:10:08;97861.06;;;6.82;100.00
55032;BME280;40928;51.076;7.950;2023-05-19T06:12:35;97862.41;;;6.99;100.00
55032;BME280;40928;51.076;7.950;2023-05-19T06:15:05;97866.19;;;7.19;100.00
55032;BME280;40928;51.076;7.950;2023-05-19T06:17:47;97854.84;;;7.38;100.00
55032;BME280;40928;51.076;7.950;2023-05-19T06:20:13;97849.16;;;7.48;100.00
55032;BME280;40928;51.076;7.950;2023-05-19T06:22:40;97861.28;;;7.64;100.00
55032;BME280;40928;51.076;7.950;2023-05-19T06:25:07;97862.97;;;7.78;100.00
55032;BME280;40928;51.076;7.950;2023-05-19T06:27:36;97862.00;;;7.93;100.00
55032;BME280;40928;51.076;7.950;2023-05-19T06:30:20;97862.03;;;8.13;99.26
55032;BME280;40928;51.076;7.950;2023-05-19T06:33:08;97856.50;;;8.28;96.36
55032;BME280;40928;51.076;7.950;2023-05-19T06:35:33;97851.00;;;8.43;94.69
55032;BME280;40928;51.076;7.950;2023-05-19T06:37:59;97851.84;;;8.57;93.43
55032;BME280;40928;51.076;7.950;2023-05-19T06:40:25;97858.38;;;8.75;90.45
55032;BME280;40928;51.076;7.950;2023-05-19T06:42:52;97848.16;;;8.85;90.03
55032;BME280;40928;51.076;7.950;2023-05-19T06:45:40;97849.34;;;9.03;88.98
55032;BME280;40928;51.076;7.950;2023-05-19T06:48:06;97848.69;;;9.21;86.77
55032;BME280;40928;51.076;7.950;2023-05-19T06:50:32;97843.50;;;9.39;84.89
55032;BME280;40928;51.076;7.950;2023-05-19T06:52:59;97854.16;;;9.46;84.38
55032;BME280;40928;51.076;7.950;2023-05-19T06:55:25;97851.19;;;9.61;83.87
55032;BME280;40928;51.076;7.950;2023-05-19T06:57:51;97850.56;;;9.72;82.33
55032;BME280;40928;51.076;7.950;2023-05-19T07:00:18;97849.41;;;9.94;81.42
55032;BME280;40928;51.076;7.950;2023-05-19T07:02:46;97853.38;;;10.16;79.49
55032;BME280;40928;51.076;7.950;2023-05-19T07:05:12;97843.38;;;10.37;78.36
55032;BME280;40928;51.076;7.950;2023-05-19T07:07:38;97848.03;;;10.48;79.42
55032;BME280;40928;51.076;7.950;2023-05-19T07:10:07;97838.19;;;10.74;76.70
55032;BME280;40928;51.076;7.950;2023-05-19T07:12:33;97841.34;;;10.83;74.82
55032;BME280;40928;51.076;7.950;2023-05-19T07:14:59;97842.06;;;10.97;75.14
55032;BME280;40928;51.076;7.950;2023-05-19T07:17:24;97846.53;;;11.03;75.04
55032;BME280;40928;51.076;7.950;2023-05-19T07:19:50;97839.91;;;11.06;73.73
55032;BME280;40928;51.076;7.950;2023-05-19T07:22:16;97838.13;;;11.18;72.64
55032;BME280;40928;51.076;7.950;2023-05-19T07:24:41;97834.50;;;11.31;72.22
55032;BME280;40928;51.076;7.950;2023-05-19T07:27:08;97830.63;;;11.46;70.61
55032;BME280;40928;51.076;7.950;2023-05-19T07:29:33;97830.19;;;11.49;69.81
55032;BME280;40928;51.076;7.950;2023-05-19T07:31:59;97833.72;;;11.61;69.37
55032;BME280;40928;51.076;7.950;2023-05-19T07:34:24;97837.06;;;11.75;67.10
55032;BME280;40928;51.076;7.950;2023-05-19T07:36:50;97844.31;;;11.86;66.22
55032;BME280;40928;51.076;7.950;2023-05-19T07:39:18;97837.22;;;11.92;65.59
55032;BME280;40928;51.076;7.950;2023-05-19T07:41:44;97831.56;;;12.00;65.65
55032;BME280;40928;51.076;7.950;2023-05-19T07:44:09;97835.81;;;12.20;65.19
55032;BME280;40928;51.076;7.950;2023-05-19T07:46:35;97846.94;;;12.36;65.23
55032;BME280;40928;51.076;7.950;2023-05-19T07:49:05;97840.31;;;12.50;63.11
55032;BME280;40928;51.076;7.950;2023-05-19T07:51:30;97837.41;;;12.52;61.12
55032;BME280;40928;51.076;7.950;2023-05-19T07:53:56;97831.94;;;12.46;61.09
55032;BME280;40928;51.076;7.950;2023-05-19T07:56:21;97835.09;;;12.55;61.77
55032;BME280;40928;51.076;7.950;2023-05-19T07:58:49;97830.09;;;12.71;60.75
55032;BME280;40928;51.076;7.950;2023-05-19T08:01:14;97845.81;;;12.79;60.23
55032;BME280;40928;51.076;7.950;2023-05-19T08:03:40;97834.50;;;12.89;58.62
55032;BME280;40928;51.076;7.950;2023-05-19T08:06:05;97822.97;;;12.88;58.55
55032;BME280;40928;51.076;7.950;2023-05-19T08:08:31;97827.03;;;12.91;57.84
55032;BME280;40928;51.076;7.950;2023-05-19T08:11:01;97834.75;;;12.99;57.24
55032;BME280;40928;51.076;7.950;2023-05-19T08:13:27;97828.88;;;13.14;57.45
55032;BME280;40928;51.076;7.950;2023-05-19T08:15:52;97834.00;;;13.28;57.15
55032;BME280;40928;51.076;7.950;2023-05-19T08:18:26;97826.97;;;13.38;56.77
55032;BME280;40928;51.076;7.950;2023-05-19T08:20:52;97826.41;;;13.48;56.46
55032;BME280;40928;51.076;7.950;2023-05-19T08:23:18;97822.78;;;13.54;56.73
55032;BME280;40928;51.076;7.950;2023-05-19T08:25:43;97817.31;;;13.49;55.69
55032;BME280;40928;51.076;7.950;2023-05-19T08:28:09;97823.97;;;13.47;55.53
55032;BME280;40928;51.076;7.950;2023-05-19T08:30:35;97822.97;;;13.65;55.29
55032;BME280;40928;51.076;7.950;2023-05-19T08:33:01;97819.47;;;13.64;55.90
55032;BME280;40928;51.076;7.950;2023-05-19T08:35:27;97816.25;;;13.79;55.65
55032;BME280;40928;51.076;7.950;2023-05-19T08:37:52;97817.34;;;13.95;54.88
55032;BME280;40928;51.076;7.950;2023-05-19T08:40:18;97808.09;;;14.03;54.18
55032;BME280;40928;51.076;7.950;2023-05-19T08:42:45;97808.75;;;14.10;54.65
55032;BME280;40928;51.076;7.950;2023-05-19T08:45:11;97808.19;;;14.08;52.94
55032;BME280;40928;51.076;7.950;2023-05-19T08:47:37;97808.09;;;14.03;52.99
55032;BME280;40928;51.076;7.950;2023-05-19T08:50:04;97801.66;;;14.04;53.17
55032;BME280;40928;51.076;7.950;2023-05-19T08:52:59;97803.47;;;14.15;53.05
55032;BME280;40928;51.076;7.950;2023-05-19T08:55:42;97795.91;;;14.29;51.69
55032;BME280;40928;51.076;7.950;2023-05-19T08:58:11;97795.16;;;14.34;51.53
55032;BME280;40928;51.076;7.950;2023-05-19T09:00:37;97795.81;;;14.58;49.91
55032;BME280;40928;51.076;7.950;2023-05-19T09:03:03;97792.72;;;14.67;49.29
55032;BME280;40928;51.076;7.950;2023-05-19T09:05:29;97788.66;;;14.81;49.46
55032;BME280;40928;51.076;7.950;2023-05-19T09:07:56;97791.56;;;14.80;49.33
55032;BME280;40928;51.076;7.950;2023-05-19T09:10:21;97790.91;;;14.89;49.52
55032;BME280;40928;51.076;7.950;2023-05-19T09:12:47;97783.19;;;14.93;49.31
55032;BME280;40928;51.076;7.950;2023-05-19T09:17:47;97785.63;;;15.17;47.44
55032;BME280;40928;51.076;7.950;2023-05-19T09:20:14;97775.72;;;15.45;45.07
55032;BME280;40928;51.076;7.950;2023-05-19T09:22:41;97772.25;;;15.44;44.91
55032;BME280;40928;51.076;7.950;2023-05-19T09:25:19;97770.97;;;15.52;45.61
55032;BME280;40928;51.076;7.950;2023-05-19T09:27:46;97770.13;;;15.74;45.10
55032;BME280;40928;51.076;7.950;2023-05-19T09:30:14;97762.22;;;15.89;43.53
55032;BME280;40928;51.076;7.950;2023-05-19T09:32:39;97758.06;;;16.04;42.27
55032;BME280;40928;51.076;7.950;2023-05-19T09:35:05;97759.78;;;16.20;41.75
55032;BME280;40928;51.076;7.950;2023-05-19T09:37:31;97772.25;;;16.26;41.91
55032;BME280;40928;51.076;7.950;2023-05-19T09:39:56;97765.06;;;16.37;42.33
55032;BME280;40928;51.076;7.950;2023-05-19T09:42:26;97759.50;;;16.49;42.04
55032;BME280;40928;51.076;7.950;2023-05-19T09:45:00;97759.28;;;16.61;42.11
55032;BME280;40928;51.076;7.950;2023-05-19T09:47:26;97769.03;;;16.67;41.75
55032;BME280;40928;51.076;7.950;2023-05-19T09:49:52;97759.09;;;16.73;42.92
55032;BME280;40928;51.076;7.950;2023-05-19T09:52:18;97760.75;;;16.84;42.73
55032;BME280;40928;51.076;7.950;2023-05-19T09:54:44;97753.31;;;16.97;41.06
55032;BME280;40928;51.076;7.950;2023-05-19T09:57:09;97755.50;;;17.05;41.54
55032;BME280;40928;51.076;7.950;2023-05-19T09:59:35;97757.47;;;17.25;42.08
55032;BME280;40928;51.076;7.950;2023-05-19T10:02:03;97759.19;;;17.47;41.06
55032;BME280;40928;51.076;7.950;2023-05-19T10:04:30;97748.66;;;17.61;40.64
55032;BME280;40928;51.076;7.950;2023-05-19T10:06:57;97756.53;;;17.83;40.66
55032;BME280;40928;51.076;7.950;2023-05-19T10:09:26;97750.91;;;17.90;38.64
55032;BME280;40928;51.076;7.950;2023-05-19T10:11:53;97750.06;;;17.74;40.06
55032;BME280;40928;51.076;7.950;2023-05-19T10:14:24;97745.47;;;17.85;40.16
55032;BME280;40928;51.076;7.950;2023-05-19T10:16:51;97747.09;;;17.80;40.16
55032;BME280;40928;51.076;7.950;2023-05-19T10:19:21;97749.84;;;18.11;38.62
55032;BME280;40928;51.076;7.950;2023-05-19T10:21:47;97741.72;;;18.42;38.32
55032;BME280;40928;51.076;7.950;2023-05-19T10:24:13;97748.47;;;18.30;38.37
55032;BME280;40928;51.076;7.950;2023-05-19T10:26:45;97750.09;;;18.31;38.28
55032;BME280;40928;51.076;7.950;2023-05-19T10:29:13;97736.03;;;18.60;37.97
55032;BME280;40928;51.076;7.950;2023-05-19T10:31:40;97736.25;;;18.79;35.97
55032;BME280;40928;51.076;7.950;2023-05-19T10:39:47;97734.44;;;19.35;36.67
55032;BME280;40928;51.076;7.950;2023-05-19T10:42:21;97720.88;;;19.40;36.41
55032;BME280;40928;51.076;7.950;2023-05-19T10:47:30;97727.97;;;19.75;36.10
55032;BME280;40928;51.076;7.950;2023-05-19T10:49:59;97725.56;;;19.74;35.37
55032;BME280;40928;51.076;7.950;2023-05-19T10:52:24;97720.25;;;19.53;35.21
55032;BME280;40928;51.076;7.950;2023-05-19T10:54:50;97722.19;;;19.47;36.55
55032;BME280;40928;51.076;7.950;2023-05-19T10:57:24;97726.53;;;19.43;34.96
55032;BME280;40928;51.076;7.950;2023-05-19T10:59:51;97731.06;;;19.58;36.01
55032;BME280;40928;51.076;7.950;2023-05-19T11:02:41;97724.59;;;19.54;36.21
55032;BME280;40928;51.076;7.950;2023-05-19T11:05:12;97728.09;;;19.55;35.37
55032;BME280;40928;51.076;7.950;2023-05-19T11:07:57;97738.66;;;19.61;35.87
55032;BME280;40928;51.076;7.950;2023-05-19T11:10:26;97730.16;;;19.73;34.65
55032;BME280;40928;51.076;7.950;2023-05-19T11:12:51;97731.50;;;19.76;33.66
55032;BME280;40928;51.076;7.950;2023-05-19T11:15:17;97722.78;;;19.79;34.04
55032;BME280;40928;51.076;7.950;2023-05-19T11:17:47;97727.66;;;19.82;34.83
55032;BME280;40928;51.076;7.950;2023-05-19T11:20:24;97722.69;;;20.00;33.89
55032;BME280;40928;51.076;7.950;2023-05-19T11:23:11;97726.31;;;19.85;34.61
55032;BME280;40928;51.076;7.950;2023-05-19T11:28:11;97714.06;;;19.92;31.66
55032;BME280;40928;51.076;7.950;2023-05-19T11:30:40;97716.50;;;19.94;32.33
55032;BME280;40928;51.076;7.950;2023-05-19T11:33:06;97723.56;;;19.90;33.24
55032;BME280;40928;51.076;7.950;2023-05-19T11:35:33;97711.84;;;20.00;33.13
55032;BME280;40928;51.076;7.950;2023-05-19T11:38:00;97715.53;;;20.09;34.05
55032;BME280;40928;51.076;7.950;2023-05-19T11:40:25;97709.03;;;20.10;32.91
55032;BME280;40928;51.076;7.950;2023-05-19T11:42:51;97705.75;;;20.13;33.28
55032;BME280;40928;51.076;7.950;2023-05-19T11:45:23;97707.56;;;20.23;33.60
55032;BME280;40928;51.076;7.950;2023-05-19T11:47:49;97699.34;;;20.33;34.11
55032;BME280;40928;51.076;7.950;2023-05-19T11:50:15;97714.78;;;20.38;33.90
55032;BME280;40928;51.076;7.950;2023-05-19T11:52:44;97698.06;;;20.26;33.57
55032;BME280;40928;51.076;7.950;2023-05-19T11:55:21;97678.59;;;19.84;33.29
55032;BME280;40928;51.076;7.950;2023-05-19T11:57:59;97694.00;;;19.54;33.86
55032;BME280;40928;51.076;7.950;2023-05-19T12:00:29;97688.53;;;19.59;34.26
55032;BME280;40928;51.076;7.950;2023-05-19T12:02:56;97687.56;;;19.79;35.23
55032;BME280;40928;51.076;7.950;2023-05-19T12:05:23;97690.16;;;20.00;34.09
55032;BME280;40928;51.076;7.950;2023-05-19T12:07:50;97679.63;;;19.93;33.23
55032;BME280;40928;51.076;7.950;2023-05-19T12:10:36;97677.50;;;19.90;33.73
55032;BME280;40928;51.076;7.950;2023-05-19T12:13:04;97684.81;;;19.89;32.77
55032;BME280;40928;51.076;7.950;2023-05-19T12:15:30;97686.56;;;19.70;33.14
55032;BME280;40928;51.076;7.950;2023-05-19T12:17:59;97681.06;;;19.80;33.67
55032;BME280;40928;51.076;7.950;2023-05-19T12:20:26;97673.41;;;19.92;34.25
55032;BME280;40928;51.076;7.950;2023-05-19T12:22:54;97675.69;;;20.10;34.55
55032;BME280;40928;51.076;7.950;2023-05-19T12:25:20;97676.31;;;20.01;33.75
55032;BME280;40928;51.076;7.950;2023-05-19T12:27:45;97680.53;;;19.78;34.12
55032;BME280;40928;51.076;7.950;2023-05-19T12:30:15;97668.75;;;19.58;33.94
55032;BME280;40928;51.076;7.950;2023-05-19T12:32:41;97665.75;;;19.60;33.85
55032;BME280;40928;51.076;7.950;2023-05-19T12:35:07;97673.22;;;19.78;35.37
55032;BME280;40928;51.076;7.950;2023-05-19T12:37:33;97668.50;;;19.95;34.24
55032;BME280;40928;51.076;7.950;2023-05-19T12:40:02;97663.47;;;20.12;34.35
55032;BME280;40928;51.076;7.950;2023-05-19T12:42:30;97666.09;;;20.22;34.91
55032;BME280;40928;51.076;7.950;2023-05-19T12:44:58;97670.31;;;20.34;34.37
55032;BME280;40928;51.076;7.950;2023-05-19T12:47:29;97661.69;;;20.27;33.63
55032;BME280;40928;51.076;7.950;2023-05-19T12:50:07;97653.00;;;20.30;33.50
55032;BME280;40928;51.076;7.950;2023-05-19T12:52:48;97653.53;;;20.32;35.09
55032;BME280;40928;51.076;7.950;2023-05-19T12:55:16;97647.63;;;20.24;35.31
55032;BME280;40928;51.076;7.950;2023-05-19T12:57:43;97648.94;;;20.03;35.18
55032;BME280;40928;51.076;7.950;2023-05-19T13:00:13;97644.63;;;19.97;35.20
55032;BME280;40928;51.076;7.950;2023-05-19T13:05:20;97642.00;;;19.52;37.06
55032;BME280;40928;51.076;7.950;2023-05-19T13:08:11;97638.66;;;19.60;36.46
55032;BME280;40928;51.076;7.950;2023-05-19T13:10:38;97634.09;;;19.60;35.45
55032;BME280;40928;51.076;7.950;2023-05-19T13:13:04;97636.59;;;19.52;36.75
55032;BME280;40928;51.076;7.950;2023-05-19T13:15:31;97637.47;;;19.42;36.57
55032;BME280;40928;51.076;7.950;2023-05-19T13:18:01;97644.53;;;19.32;36.87
55032;BME280;40928;51.076;7.950;2023-05-19T13:20:28;97635.66;;;19.27;37.17
55032;BME280;40928;51.076;7.950;2023-05-19T13:22:54;97640.50;;;19.30;36.73
55032;BME280;40928;51.076;7.950;2023-05-19T13:25:19;97634.50;;;19.38;35.47
55032;BME280;40928;51.076;7.950;2023-05-19T13:27:46;97627.75;;;19.36;36.09
55032;BME280;40928;51.076;7.950;2023-05-19T13:30:12;97632.50;;;19.49;37.06
55032;BME280;40928;51.076;7.950;2023-05-19T13:32:38;97622.97;;;19.57;37.13
55032;BME280;40928;51.076;7.950;2023-05-19T13:35:04;97626.44;;;19.62;36.93
55032;BME280;40928;51.076;7.950;2023-05-19T13:37:30;97616.78;;;19.56;37.15
55032;BME280;40928;51.076;7.950;2023-05-19T13:39:55;97623.63;;;19.78;37.57
55032;BME280;40928;51.076;7.950;2023-05-19T13:42:23;97623.84;;;19.52;35.70